Time;durP1;ratioP1;P1;durP2;ratioP2;P2;SDS_P1;SDS_P2;PMS_P1;PMS_P2;Temp;Humidity;BMP_temperature;BMP_pressure;BME280_temperature;BME280_humidity;BME280_pressure;Samples;Min_cycle;Max_cycle;Signal;HPM_P1;HPM_P2
2022/11/25 00:02:21;;;;;;;;;;;;;;;;;;6225134;23;19919;-89
2022/11/25 00:04:47;;;;;;;;;;;;;;;;;;6224721;23;19919;-89
2022/11/25 00:07:13;;;;;;;;;;;;;;;;;;6226055;23;19920;-89
2022/11/25 00:09:39;;;;;;;;;;;;;;;;;;6224023;23;19920;-89
2022/11/25 00:12:05;;;;;;;;;;;;;;;;;;6224465;23;19915;-89
2022/11/25 00:14:31;;;;;;;;;;;;;;;;;;6225123;23;19926;-89
2022/11/25 00:16:57;;;;;;;;;;;;;;;;;;6223499;23;20093;-89
2022/11/25 00:19:23;;;;;;;;;;;;;;;;;;6221780;23;19935;-89
2022/11/25 00:21:49;;;;;;;;;;;;;;;;;;6225923;23;19919;-89
2022/11/25 00:24:15;;;;;;;;;;;;;;;;;;6226128;23;19920;-90
2022/11/25 00:26:41;;;;;;;;;;;;;;;;;;6227939;23;19927;-89
2022/11/25 00:29:07;;;;;;;;;;;;;;;;;;6229502;23;19924;-89
2022/11/25 00:31:33;;;;;;;;;;;;;;;;;;6223100;23;19926;-90
2022/11/25 00:33:59;;;;;;;;;;;;;;;;;;6226575;23;19919;-90
2022/11/25 00:36:25;;;;;;;;;;;;;;;;;;6223562;23;19919;-90
2022/11/25 00:38:50;;;;;;;;;;;;;;;;;;6225654;23;19994;-89
2022/11/25 00:46:46;;;;;;;;;;;;;;;;;;6224065;23;19920;-89
2022/11/25 00:49:12;;;;;;;;;;;;;;;;;;6227407;23;19920;-90
2022/11/25 00:51:38;;;;;;;;;;;;;;;;;;6223694;23;19958;-89
2022/11/25 00:54:04;;;;;;;;;;;;;;;;;;6226325;22;20283;-89
2022/11/25 00:56:29;;;;;;;;;;;;;;;;;;6224472;23;19916;-89
2022/11/25 00:58:56;;;;;;;;;;;;;;;;;;6227239;23;19923;-90
2022/11/25 01:01:25;;;;;;;;;;;;;;;;;;6225051;23;19958;-90
2022/11/25 01:03:51;;;;;;;;;;;;;;;;;;6226936;23;20384;-90
2022/11/25 01:06:17;;;;;;;;;;;;;;;;;;6224436;23;19920;-89
2022/11/25 01:08:43;;;;;;;;;;;;;;;;;;6222184;23;20577;-90
2022/11/25 01:11:09;;;;;;;;;;;;;;;;;;6226082;23;20010;-88
2022/11/25 01:13:34;;;;;;;;;;;;;;;;;;6224062;23;19919;-90
2022/11/25 01:16:01;;;;;;;;;;;;;;;;;;6224507;23;19919;-90
2022/11/25 01:18:27;;;;;;;;;;;;;;;;;;6222130;23;20381;-89
2022/11/25 01:20:53;;;;;;;;;;;;;;;;;;6223384;23;20018;-89
2022/11/25 01:23:19;;;;;;;;;;;;;;;;;;6225749;23;19920;-90
2022/11/25 01:25:45;;;;;;;;;;;;;;;;;;6222638;23;19923;-90
2022/11/25 01:28:12;;;;;;;;;;;;;;;;;;6224860;23;19924;-89
2022/11/25 01:30:38;;;;;;;;;;;;;;;;;;6225527;23;19919;-89
2022/11/25 01:33:04;;;;;;;;;;;;;;;;;;6224582;23;20357;-89
2022/11/25 01:35:30;;;;;;;;;;;;;;;;;;6220727;23;19927;-90
2022/11/25 01:37:56;;;;;;;;;;;;;;;;;;6224167;23;20442;-89
2022/11/25 01:40:22;;;;;;;;;;;;;;;;;;6221824;23;20443;-89
2022/11/25 01:42:51;;;;;;;;;;;;;;;;;;6223140;23;20339;-89
2022/11/25 01:45:19;;;;;;;;;;;;;;;;;;6222810;23;19943;-89
2022/11/25 01:47:45;;;;;;;;;;;;;;;;;;6220324;23;19920;-89
2022/11/25 01:50:11;;;;;;;;;;;;;;;;;;6215736;23;19926;-89
2022/11/25 01:52:37;;;;;;;;;;;;;;;;;;6216859;23;19919;-89
2022/11/25 01:55:03;;;;;;;;;;;;;;;;;;6223284;22;19920;-89
2022/11/25 01:57:29;;;;;;;;;;;;;;;;;;6222262;23;19990;-89
2022/11/25 01:59:55;;;;;;;;;;;;;;;;;;6227465;23;19945;-88
2022/11/25 02:02:24;;;;;;;;;;;;;;;;;;6224281;23;20220;-89
2022/11/25 02:04:50;;;;;;;;;;;;;;;;;;6224786;23;19919;-89
2022/11/25 02:07:16;;;;;;;;;;;;;;;;;;6219928;23;19919;-89
2022/11/25 02:09:42;;;;;;;;;;;;;;;;;;6222078;23;20157;-89
2022/11/25 02:12:08;;;;;;;;;;;;;;;;;;6224904;23;19919;-90
2022/11/25 02:14:34;;;;;;;;;;;;;;;;;;6221229;23;19921;-89
2022/11/25 02:17:00;;;;;;;;;;;;;;;;;;6222698;23;20090;-89
2022/11/25 02:19:26;;;;;;;;;;;;;;;;;;6220297;23;19971;-89
2022/11/25 02:21:52;;;;;;;;;;;;;;;;;;6227329;23;20321;-89
2022/11/25 02:24:18;;;;;;;;;;;;;;;;;;6225146;23;20445;-89
2022/11/25 02:26:44;;;;;;;;;;;;;;;;;;6221673;23;19919;-89
2022/11/25 02:29:10;;;;;;;;;;;;;;;;;;6223860;23;20276;-89
2022/11/25 02:31:36;;;;;;;;;;;;;;;;;;6220607;23;19920;-89
2022/11/25 02:34:02;;;;;;;;;;;;;;;;;;6228293;23;20260;-89
2022/11/25 02:36:28;;;;;;;;;;;;;;;;;;6223007;23;19919;-89
2022/11/25 02:38:54;;;;;;;;;;;;;;;;;;6226975;23;19969;-89
2022/11/25 02:41:19;;;;;;;;;;;;;;;;;;6226153;23;19919;-89
2022/11/25 02:43:45;;;;;;;;;;;;;;;;;;6221200;23;19916;-90
2022/11/25 02:46:11;;;;;;;;;;;;;;;;;;6223123;23;20404;-89
2022/11/25 02:48:37;;;;;;;;;;;;;;;;;;6222957;23;20416;-89
2022/11/25 02:51:03;;;;;;;;;;;;;;;;;;6224841;23;19927;-89
2022/11/25 02:53:29;;;;;;;;;;;;;;;;;;6221207;23;19924;-90
2022/11/25 02:55:55;;;;;;;;;;;;;;;;;;6225920;22;20244;-89
2022/11/25 02:58:24;;;;;;;;;;;;;;;;;;6226353;23;19943;-89
2022/11/25 03:00:50;;;;;;;;;;;;;;;;;;6223808;23;19943;-89
2022/11/25 03:03:16;;;;;;;;;;;;;;;;;;6226875;23;19919;-89
2022/11/25 03:05:42;;;;;;;;;;;;;;;;;;6228444;23;20254;-89
2022/11/25 03:08:08;;;;;;;;;;;;;;;;;;6226571;23;20332;-89
2022/11/25 03:10:34;;;;;;;;;;;;;;;;;;6228746;23;20649;-89
2022/11/25 03:13:00;;;;;;;;;;;;;;;;;;6227309;23;20249;-89
2022/11/25 03:15:26;;;;;;;;;;;;;;;;;;6225656;23;19926;-89
2022/11/25 03:17:52;;;;;;;;;;;;;;;;;;6229281;23;19923;-89
2022/11/25 03:20:18;;;;;;;;;;;;;;;;;;6230282;23;19958;-89
2022/11/25 03:22:44;;;;;;;;;;;;;;;;;;6226277;23;20005;-89
2022/11/25 03:25:10;;;;;;;;;;;;;;;;;;6229561;23;19919;-90
2022/11/25 03:27:36;;;;;;;;;;;;;;;;;;6227712;23;19923;-90
2022/11/25 03:30:02;;;;;;;;;;;;;;;;;;6232821;23;20360;-90
2022/11/25 03:32:29;;;;;;;;;;;;;;;;;;6227252;23;19924;-90
2022/11/25 03:34:54;;;;;;;;;;;;;;;;;;6230536;23;19919;-90
2022/11/25 03:37:20;;;;;;;;;;;;;;;;;;6229359;23;20010;-90
2022/11/25 03:39:46;;;;;;;;;;;;;;;;;;6225125;23;19923;-90
2022/11/25 03:42:12;;;;;;;;;;;;;;;;;;6227457;23;19923;-89
2022/11/25 03:44:38;;;;;;;;;;;;;;;;;;6223533;23;19923;-90
2022/11/25 03:47:04;;;;;;;;;;;;;;;;;;6227798;23;20482;-90
2022/11/25 03:49:30;;;;;;;;;;;;;;;;;;6224005;23;19919;-90
2022/11/25 03:51:56;;;;;;;;;;;;;;;;;;6226809;23;19922;-89
2022/11/25 03:54:22;;;;;;;;;;;;;;;;;;6227900;22;19919;-89
2022/11/25 03:56:48;;;;;;;;;;;;;;;;;;6229890;23;19923;-90
2022/11/25 03:59:14;;;;;;;;;;;;;;;;;;6228395;23;19923;-89
2022/11/25 04:01:40;;;;;;;;;;;;;;;;;;6224018;23;19920;-89
2022/11/25 04:04:06;;;;;;;;;;;;;;;;;;6227941;23;20269;-89
2022/11/25 04:06:32;;;;;;;;;;;;;;;;;;6229277;23;19981;-89
2022/11/25 04:08:58;;;;;;;;;;;;;;;;;;6229240;23;19954;-90
2022/11/25 04:12:45;;;;;;;;;;;;;;;;;;6224052;23;19950;-89
2022/11/25 04:14:10;;;;;;;;;;;;;;;;;;6226761;23;20412;-90
2022/11/25 04:16:36;;;;;;;;;;;;;;;;;;6222993;23;19926;-90
2022/11/25 04:19:02;;;;;;;;;;;;;;;;;;6223899;23;19927;-89
2022/11/25 04:21:28;;;;;;;;;;;;;;;;;;6225943;23;19919;-90
2022/11/25 04:23:54;;;;;;;;;;;;;;;;;;6225919;23;20389;-89
2022/11/25 04:26:20;;;;;;;;;;;;;;;;;;6225706;23;19919;-89
2022/11/25 04:28:46;;;;;;;;;;;;;;;;;;6226352;23;20324;-89
2022/11/25 04:31:12;;;;;;;;;;;;;;;;;;6228615;23;19927;-90
2022/11/25 04:33:37;;;;;;;;;;;;;;;;;;6224887;23;19920;-89
2022/11/25 04:36:03;;;;;;;;;;;;;;;;;;6228105;23;20282;-90
2022/11/25 04:38:29;;;;;;;;;;;;;;;;;;6225557;23;19923;-90
2022/11/25 04:40:55;;;;;;;;;;;;;;;;;;6230552;23;19987;-89
2022/11/25 04:43:22;;;;;;;;;;;;;;;;;;6227063;23;19927;-90
2022/11/25 04:45:48;;;;;;;;;;;;;;;;;;6224342;23;20321;-90
2022/11/25 04:48:13;;;;;;;;;;;;;;;;;;6253066;22;19920;-90
2022/11/25 04:50:39;;;;;;;;;;;;;;;;;;6251990;22;19919;-90
2022/11/25 04:53:05;;;;;;;;;;;;;;;;;;6224361;23;20402;-90
2022/11/25 04:55:31;;;;;;;;;;;;;;;;;;6224648;22;20297;-89
2022/11/25 04:57:57;;;;;;;;;;;;;;;;;;6225584;23;19923;-89
2022/11/25 05:00:23;;;;;;;;;;;;;;;;;;6221497;23;19986;-89
2022/11/25 05:02:49;;;;;;;;;;;;;;;;;;6226632;23;20396;-90
2022/11/25 05:05:15;;;;;;;;;;;;;;;;;;6226306;23;19939;-90
2022/11/25 05:07:41;;;;;;;;;;;;;;;;;;6226502;23;19919;-89
2022/11/25 05:10:07;;;;;;;;;;;;;;;;;;6225319;23;19919;-89
2022/11/25 05:12:33;;;;;;;;;;;;;;;;;;6221607;23;19920;-90
2022/11/25 05:14:59;;;;;;;;;;;;;;;;;;6225777;23;20293;-89
2022/11/25 05:17:25;;;;;;;;;;;;;;;;;;6222550;23;19942;-90
2022/11/25 05:19:51;;;;;;;;;;;;;;;;;;6226797;23;19920;-89
2022/11/25 05:22:17;;;;;;;;;;;;;;;;;;6225269;23;20388;-90
2022/11/25 05:24:43;;;;;;;;;;;;;;;;;;6222654;23;19923;-89
2022/11/25 05:27:09;;;;;;;;;;;;;;;;;;6224905;23;19934;-90
2022/11/25 05:29:35;;;;;;;;;;;;;;;;;;6222650;23;19955;-90
2022/11/25 05:32:01;;;;;;;;;;;;;;;;;;6227341;23;19920;-89
2022/11/25 05:34:26;;;;;;;;;;;;;;;;;;6220951;23;19965;-90
2022/11/25 05:36:52;;;;;;;;;;;;;;;;;;6224721;23;19923;-89
2022/11/25 05:39:18;;;;;;;;;;;;;;;;;;6225384;23;19959;-89
2022/11/25 05:41:44;;;;;;;;;;;;;;;;;;6224860;23;19919;-89
2022/11/25 05:44:10;;;;;;;;;;;;;;;;;;6225281;23;19941;-89
2022/11/25 05:46:36;;;;;;;;;;;;;;;;;;6221883;23;19920;-89
2022/11/25 05:49:02;;;;;;;;;;;;;;;;;;6224168;23;19927;-89
2022/11/25 05:51:28;;;;;;;;;;;;;;;;;;6246725;22;19919;-89
2022/11/25 05:53:54;;;;;;;;;;;;;;;;;;6222180;22;19920;-90
2022/11/25 05:56:20;;;;;;;;;;;;;;;;;;6222786;23;19927;-89
2022/11/25 05:58:46;;;;;;;;;;;;;;;;;;6222750;23;20582;-89
2022/11/25 06:01:12;;;;;;;;;;;;;;;;;;6223725;23;19931;-90
2022/11/25 06:03:38;;;;;;;;;;;;;;;;;;6220557;23;19919;-89
2022/11/25 06:06:04;;;;;;;;;;;;;;;;;;6222707;23;19919;-89
2022/11/25 06:08:30;;;;;;;;;;;;;;;;;;6218537;23;20258;-90
2022/11/25 06:10:56;;;;;;;;;;;;;;;;;;6222657;23;19973;-90
2022/11/25 06:13:25;;;;;;;;;;;;;;;;;;6224279;23;19926;-90
2022/11/25 06:15:51;;;;;;;;;;;;;;;;;;6227945;23;20394;-90
2022/11/25 06:18:17;;;;;;;;;;;;;;;;;;6225555;23;19955;-90
2022/11/25 06:20:43;;;;;;;;;;;;;;;;;;6223316;23;19919;-90
2022/11/25 06:23:09;;;;;;;;;;;;;;;;;;6224958;23;19966;-89
2022/11/25 06:25:36;;;;;;;;;;;;;;;;;;6222357;23;19919;-90
2022/11/25 06:28:04;;;;;;;;;;;;;;;;;;6222376;23;19930;-89
2022/11/25 06:30:31;;;;;;;;;;;;;;;;;;6241042;22;20003;-89
2022/11/25 06:32:57;;;;;;;;;;;;;;;;;;6219583;23;20022;-89
2022/11/25 06:35:23;;;;;;;;;;;;;;;;;;6222743;23;19928;-90
2022/11/25 06:37:49;;;;;;;;;;;;;;;;;;6220107;23;19959;-90
2022/11/25 06:40:15;;;;;;;;;;;;;;;;;;6225052;23;20288;-90
2022/11/25 06:42:42;;;;;;;;;;;;;;;;;;6218729;23;19949;-90
2022/11/25 06:45:08;;;;;;;;;;;;;;;;;;6223419;23;20345;-90
2022/11/25 06:47:34;;;;;;;;;;;;;;;;;;6220702;23;19927;-90
2022/11/25 06:50:00;;;;;;;;;;;;;;;;;;6222148;23;20412;-88
2022/11/25 06:52:26;;;;;;;;;;;;;;;;;;6215928;23;20713;-90
2022/11/25 06:54:52;;;;;;;;;;;;;;;;;;6222322;22;19934;-87
2022/11/25 06:57:18;;;;;;;;;;;;;;;;;;6225334;23;19927;-88
2022/11/25 06:59:44;;;;;;;;;;;;;;;;;;6220022;23;19924;-87
2022/11/25 07:02:10;;;;;;;;;;;;;;;;;;6221890;23;19924;-88
2022/11/25 07:04:36;;;;;;;;;;;;;;;;;;6220055;23;19926;-88
2022/11/25 07:07:02;;;;;;;;;;;;;;;;;;6220929;23;19924;-88
2022/11/25 07:09:28;;;;;;;;;;;;;;;;;;6223077;23;19919;-88
2022/11/25 07:11:54;;;;;;;;;;;;;;;;;;6225282;23;19920;-88
2022/11/25 07:14:20;;;;;;;;;;;;;;;;;;6224004;23;19919;-88
2022/11/25 07:16:46;;;;;;;;;;;;;;;;;;6225160;23;19946;-89
2022/11/25 07:19:12;;;;;;;;;;;;;;;;;;6226197;23;20692;-90
2022/11/25 07:21:38;;;;;;;;;;;;;;;;;;6227300;23;20436;-90
2022/11/25 07:24:04;;;;;;;;;;;;;;;;;;6227723;23;20292;-89
2022/11/25 07:26:30;;;;;;;;;;;;;;;;;;6225182;23;20337;-89
2022/11/25 07:28:56;;;;;;;;;;;;;;;;;;6227791;23;19986;-90
2022/11/25 07:31:22;;;;;;;;;;;;;;;;;;6225720;23;20361;-90
2022/11/25 07:33:48;;;;;;;;;;;;;;;;;;6223634;23;19920;-90
2022/11/25 07:36:14;;;;;;;;;;;;;;;;;;6225565;23;19927;-89
2022/11/25 07:38:40;;;;;;;;;;;;;;;;;;6224589;23;19930;-89
2022/11/25 07:41:06;;;;;;;;;;;;;;;;;;6227228;23;19951;-90
2022/11/25 07:43:32;;;;;;;;;;;;;;;;;;6223759;23;19920;-89
2022/11/25 07:45:58;;;;;;;;;;;;;;;;;;6224035;23;19926;-89
2022/11/25 07:48:24;;;;;;;;;;;;;;;;;;6224636;23;19920;-90
2022/11/25 07:50:51;;;;;;;;;;;;;;;;;;6227796;23;19926;-89
2022/11/25 07:53:17;;;;;;;;;;;;;;;;;;6229750;23;19919;-89
2022/11/25 07:55:46;;;;;;;;;;;;;;;;;;6228758;22;19926;-90
2022/11/25 07:58:12;;;;;;;;;;;;;;;;;;6226806;23;19998;-90
2022/11/25 08:00:38;;;;;;;;;;;;;;;;;;6224746;23;20034;-90
2022/11/25 08:03:04;;;;;;;;;;;;;;;;;;6229678;23;19919;-90
2022/11/25 08:05:30;;;;;;;;;;;;;;;;;;6230838;23;19991;-90
2022/11/25 08:07:56;;;;;;;;;;;;;;;;;;6235367;23;19942;-90
2022/11/25 08:10:25;;;;;;;;;;;;;;;;;;6234532;23;19916;-90
2022/11/25 08:12:51;;;;;;;;;;;;;;;;;;6236029;23;19938;-90
2022/11/25 08:15:17;;;;;;;;;;;;;;;;;;6235388;23;20333;-90
2022/11/25 08:17:42;;;;;;;;;;;;;;;;;;6232441;23;20889;-90
2022/11/25 08:20:08;;;;;;;;;;;;;;;;;;6234122;23;20321;-90
2022/11/25 08:22:34;;;;;;;;;;;;;;;;;;6231890;23;19919;-91
2022/11/25 08:25:00;;;;;;;;;;;;;;;;;;6227388;23;19919;-89
2022/11/25 08:27:26;;;;;;;;;;;;;;;;;;6229598;23;19919;-90
2022/11/25 08:29:52;;;;;;;;;;;;;;;;;;6227679;23;19935;-90
2022/11/25 08:32:18;;;;;;;;;;;;;;;;;;6226458;23;19923;-90
2022/11/25 08:34:44;;;;;;;;;;;;;;;;;;6224792;23;20347;-91
2022/11/25 08:37:10;;;;;;;;;;;;;;;;;;6227983;23;19916;-90
2022/11/25 08:39:36;;;;;;;;;;;;;;;;;;6224935;23;20388;-90
2022/11/25 08:42:03;;;;;;;;;;;;;;;;;;6230513;23;19945;-90
2022/11/25 08:44:29;;;;;;;;;;;;;;;;;;6227325;23;19920;-91
2022/11/25 08:46:55;;;;;;;;;;;;;;;;;;6230858;23;20283;-90
2022/11/25 08:49:21;;;;;;;;;;;;;;;;;;6234257;23;19919;-90
2022/11/25 08:51:47;;;;;;;;;;;;;;;;;;6230699;23;19923;-90
2022/11/25 08:54:13;;;;;;;;;;;;;;;;;;6232102;22;19923;-90
2022/11/25 08:56:39;;;;;;;;;;;;;;;;;;6229305;23;19920;-90
2022/11/25 08:59:05;;;;;;;;;;;;;;;;;;6232354;23;19927;-90
2022/11/25 09:01:31;;;;;;;;;;;;;;;;;;6228182;23;20350;-90
2022/11/25 09:03:57;;;;;;;;;;;;;;;;;;6233206;23;19919;-90
2022/11/25 09:06:23;;;;;;;;;;;;;;;;;;6229311;23;20300;-90
2022/11/25 09:08:49;;;;;;;;;;;;;;;;;;6232770;23;19977;-90
2022/11/25 09:11:15;;;;;;;;;;;;;;;;;;6231553;23;19923;-90
2022/11/25 09:13:41;;;;;;;;;;;;;;;;;;6230191;23;19916;-90
2022/11/25 09:16:08;;;;;;;;;;;;;;;;;;6232119;23;19991;-90
2022/11/25 09:18:35;;;;;;;;;;;;;;;;;;6229843;23;19942;-90
2022/11/25 09:21:01;;;;;;;;;;;;;;;;;;6231256;23;19978;-91
2022/11/25 09:23:27;;;;;;;;;;;;;;;;;;6227099;23;19920;-90
2022/11/25 09:25:53;;;;;;;;;;;;;;;;;;6231487;23;19920;-90
2022/11/25 09:28:19;;;;;;;;;;;;;;;;;;6233120;23;20084;-90
2022/11/25 09:30:45;;;;;;;;;;;;;;;;;;6230458;23;19919;-90
2022/11/25 09:33:11;;;;;;;;;;;;;;;;;;6232744;23;19998;-90
2022/11/25 09:35:37;;;;;;;;;;;;;;;;;;6228910;23;19927;-90
2022/11/25 09:38:03;;;;;;;;;;;;;;;;;;6233220;23;19986;-91
2022/11/25 09:40:29;;;;;;;;;;;;;;;;;;6230443;23;20279;-91
2022/11/25 09:48:24;;;;;;;;;;;;;;;;;;6227163;23;19926;-91
2022/11/25 09:50:52;;;;;;;;;;;;;;;;;;6242034;23;22057;-88
2022/11/25 09:53:18;;;;;;;;;;;;;;;;;;6233516;23;19920;-91
2022/11/25 09:55:44;;;;;;;;;;;;;;;;;;6230708;22;19947;-88
2022/11/25 09:58:10;;;;;;;;;;;;;;;;;;6233225;23;19923;-89
2022/11/25 10:00:37;;;;;;;;;;;;;;;;;;6227263;23;19919;-89
2022/11/25 10:03:03;;;;;;;;;;;;;;;;;;6232634;23;19916;-89
2022/11/25 10:05:29;;;;;;;;;;;;;;;;;;6228727;23;20005;-89
2022/11/25 10:07:55;;;;;;;;;;;;;;;;;;6232382;23;19915;-89
2022/11/25 10:10:21;;;;;;;;;;;;;;;;;;6233684;23;19919;-89
2022/11/25 10:12:47;;;;;;;;;;;;;;;;;;6233132;23;19974;-89
2022/11/25 10:15:13;;;;;;;;;;;;;;;;;;6232128;23;20398;-89
2022/11/25 10:17:39;;;;;;;;;;;;;;;;;;6232019;23;19974;-89
2022/11/25 10:20:05;;;;;;;;;;;;;;;;;;6229490;23;19935;-89
2022/11/25 10:22:30;;;;;;;;;;;;;;;;;;6229554;23;19920;-89
2022/11/25 10:24:56;;;;;;;;;;;;;;;;;;6232896;23;19955;-89
2022/11/25 10:27:22;;;;;;;;;;;;;;;;;;6228294;23;19930;-89
2022/11/25 10:29:48;;;;;;;;;;;;;;;;;;6232496;23;19930;-89
2022/11/25 10:32:14;;;;;;;;;;;;;;;;;;6231169;23;19965;-89
2022/11/25 10:34:40;;;;;;;;;;;;;;;;;;6228967;23;20226;-89
2022/11/25 10:37:06;;;;;;;;;;;;;;;;;;6227396;23;19927;-89
2022/11/25 10:39:32;;;;;;;;;;;;;;;;;;6225548;23;20422;-90
2022/11/25 10:42:00;;;;;;;;;;;;;;;;;;6231459;23;20241;-89
2022/11/25 10:44:26;;;;;;;;;;;;;;;;;;6230428;23;20370;-89
2022/11/25 10:46:52;;;;;;;;;;;;;;;;;;6232340;23;20352;-89
2022/11/25 10:49:18;;;;;;;;;;;;;;;;;;6229446;23;19920;-89
2022/11/25 10:51:44;;;;;;;;;;;;;;;;;;6227459;23;19919;-89
2022/11/25 10:54:10;;;;;;;;;;;;;;;;;;6234566;22;19990;-89
2022/11/25 10:56:36;;;;;;;;;;;;;;;;;;6233161;23;19982;-89
2022/11/25 10:59:02;;;;;;;;;;;;;;;;;;6233367;23;19966;-89
2022/11/25 11:01:28;;;;;;;;;;;;;;;;;;6231061;23;19927;-89
2022/11/25 11:03:54;;;;;;;;;;;;;;;;;;6234987;23;19916;-89
2022/11/25 11:06:20;;;;;;;;;;;;;;;;;;6235381;23;20241;-89
2022/11/25 11:08:46;;;;;;;;;;;;;;;;;;6225339;23;19990;-90
2022/11/25 11:11:12;;;;;;;;;;;;;;;;;;6234278;23;19919;-89
2022/11/25 11:13:38;;;;;;;;;;;;;;;;;;6228049;23;19927;-89
2022/11/25 11:16:04;;;;;;;;;;;;;;;;;;6235564;23;20287;-90
2022/11/25 11:18:30;;;;;;;;;;;;;;;;;;6228861;23;20006;-90
2022/11/25 11:20:56;;;;;;;;;;;;;;;;;;6258913;22;19919;-90
2022/11/25 11:23:25;;;;;;;;;;;;;;;;;;6234488;23;19955;-90
2022/11/25 11:25:51;;;;;;;;;;;;;;;;;;6237909;23;19916;-89
2022/11/25 11:28:17;;;;;;;;;;;;;;;;;;6236863;23;19926;-89
2022/11/25 11:30:43;;;;;;;;;;;;;;;;;;6233905;23;20451;-90
2022/11/25 11:33:09;;;;;;;;;;;;;;;;;;6237849;23;19920;-90
2022/11/25 11:35:35;;;;;;;;;;;;;;;;;;6234710;23;19991;-89
2022/11/25 11:38:01;;;;;;;;;;;;;;;;;;6237256;23;20395;-90
2022/11/25 11:40:27;;;;;;;;;;;;;;;;;;6233478;23;20367;-90
2022/11/25 11:42:53;;;;;;;;;;;;;;;;;;6238711;23;19924;-90
2022/11/25 11:45:19;;;;;;;;;;;;;;;;;;6236473;23;19920;-90
2022/11/25 11:47:45;;;;;;;;;;;;;;;;;;6233086;23;19916;-90
2022/11/25 11:50:11;;;;;;;;;;;;;;;;;;6233930;23;19945;-90
2022/11/25 11:52:37;;;;;;;;;;;;;;;;;;6233455;23;19923;-90
2022/11/25 11:55:03;;;;;;;;;;;;;;;;;;6235344;22;19991;-90
2022/11/25 11:57:29;;;;;;;;;;;;;;;;;;6234503;23;19915;-90
2022/11/25 11:59:55;;;;;;;;;;;;;;;;;;6235682;23;19923;-90
2022/11/25 12:02:21;;;;;;;;;;;;;;;;;;6236175;23;19964;-90
2022/11/25 12:04:46;;;;;;;;;;;;;;;;;;6232709;23;19920;-90
2022/11/25 12:07:12;;;;;;;;;;;;;;;;;;6236693;23;19931;-90
2022/11/25 12:09:39;;;;;;;;;;;;;;;;;;6232088;23;19920;-90
2022/11/25 12:12:05;;;;;;;;;;;;;;;;;;6236915;23;19923;-89
2022/11/25 12:14:31;;;;;;;;;;;;;;;;;;6231617;23;19982;-89
2022/11/25 12:16:57;;;;;;;;;;;;;;;;;;6235366;23;19919;-89
2022/11/25 12:19:23;;;;;;;;;;;;;;;;;;6232564;23;19931;-90
2022/11/25 12:21:49;;;;;;;;;;;;;;;;;;6235382;23;20242;-90
2022/11/25 12:24:15;;;;;;;;;;;;;;;;;;6236408;23;19962;-89
2022/11/25 12:26:41;;;;;;;;;;;;;;;;;;6234047;23;20699;-89
2022/11/25 12:29:07;;;;;;;;;;;;;;;;;;6234754;23;20248;-89
2022/11/25 12:31:33;;;;;;;;;;;;;;;;;;6232117;23;19930;-89
2022/11/25 12:33:59;;;;;;;;;;;;;;;;;;6235110;23;19930;-90
2022/11/25 12:36:25;;;;;;;;;;;;;;;;;;6232836;23;19919;-90
2022/11/25 12:38:51;;;;;;;;;;;;;;;;;;6234868;23;19999;-90
2022/11/25 12:41:17;;;;;;;;;;;;;;;;;;6235512;23;19916;-89
2022/11/25 12:43:43;;;;;;;;;;;;;;;;;;6233078;23;20320;-89
2022/11/25 12:46:08;;;;;;;;;;;;;;;;;;6235673;23;19926;-90
2022/11/25 12:48:34;;;;;;;;;;;;;;;;;;6232593;23;19926;-89
2022/11/25 12:51:00;;;;;;;;;;;;;;;;;;6234953;23;19943;-90
2022/11/25 12:53:26;;;;;;;;;;;;;;;;;;6232197;23;19926;-89
2022/11/25 12:55:52;;;;;;;;;;;;;;;;;;6235413;22;20346;-89
2022/11/25 12:58:18;;;;;;;;;;;;;;;;;;6235382;23;19919;-89
2022/11/25 13:00:45;;;;;;;;;;;;;;;;;;6231688;23;19970;-90
2022/11/25 13:03:11;;;;;;;;;;;;;;;;;;6236527;23;20032;-89
2022/11/25 13:05:37;;;;;;;;;;;;;;;;;;6230997;23;19920;-89
2022/11/25 13:08:03;;;;;;;;;;;;;;;;;;6235425;23;20366;-90
2022/11/25 13:10:29;;;;;;;;;;;;;;;;;;6230527;23;19915;-89
2022/11/25 13:12:55;;;;;;;;;;;;;;;;;;6234806;23;19920;-89
2022/11/25 13:15:21;;;;;;;;;;;;;;;;;;6235509;23;19955;-89
2022/11/25 13:17:47;;;;;;;;;;;;;;;;;;6233494;23;19920;-90
2022/11/25 13:20:12;;;;;;;;;;;;;;;;;;6235881;23;19923;-90
2022/11/25 13:22:38;;;;;;;;;;;;;;;;;;6232906;23;19927;-89
2022/11/25 13:25:04;;;;;;;;;;;;;;;;;;6235117;23;19958;-89
2022/11/25 13:27:30;;;;;;;;;;;;;;;;;;6234019;23;20349;-89
2022/11/25 13:29:56;;;;;;;;;;;;;;;;;;6235886;23;20281;-89
2022/11/25 13:32:22;;;;;;;;;;;;;;;;;;6235488;23;19998;-89
2022/11/25 13:34:48;;;;;;;;;;;;;;;;;;6234213;23;19930;-89
2022/11/25 13:37:14;;;;;;;;;;;;;;;;;;6236397;23;20391;-90
2022/11/25 13:39:40;;;;;;;;;;;;;;;;;;6232530;23;19920;-89
2022/11/25 13:42:06;;;;;;;;;;;;;;;;;;6234950;23;19926;-90
2022/11/25 13:44:33;;;;;;;;;;;;;;;;;;6231538;23;20388;-90
2022/11/25 13:47:00;;;;;;;;;;;;;;;;;;6235011;23;19969;-90
2022/11/25 13:49:26;;;;;;;;;;;;;;;;;;6233137;23;19915;-90
2022/11/25 13:51:52;;;;;;;;;;;;;;;;;;6234294;23;19942;-90
2022/11/25 13:54:20;;;;;;;;;;;;;;;;;;6234646;22;19923;-89
2022/11/25 13:56:46;;;;;;;;;;;;;;;;;;6232502;23;19924;-90
2022/11/25 13:59:15;;;;;;;;;;;;;;;;;;6234686;23;20385;-90
2022/11/25 14:01:41;;;;;;;;;;;;;;;;;;6232448;23;19969;-90
2022/11/25 14:04:07;;;;;;;;;;;;;;;;;;6235009;23;19915;-89
2022/11/25 14:06:33;;;;;;;;;;;;;;;;;;6231834;23;19926;-89
2022/11/25 14:08:59;;;;;;;;;;;;;;;;;;6235528;23;19920;-90
2022/11/25 14:11:25;;;;;;;;;;;;;;;;;;6231687;23;19969;-89
2022/11/25 14:13:51;;;;;;;;;;;;;;;;;;6233604;23;20333;-89
2022/11/25 14:16:20;;;;;;;;;;;;;;;;;;6233795;23;20276;-89
2022/11/25 14:18:46;;;;;;;;;;;;;;;;;;6232508;23;19977;-89
2022/11/25 14:21:12;;;;;;;;;;;;;;;;;;6235806;23;19986;-90
2022/11/25 14:23:38;;;;;;;;;;;;;;;;;;6231516;23;19926;-89
2022/11/25 14:26:04;;;;;;;;;;;;;;;;;;6236695;23;19972;-89
2022/11/25 14:28:30;;;;;;;;;;;;;;;;;;6232861;23;19965;-89
2022/11/25 14:30:59;;;;;;;;;;;;;;;;;;6233427;23;19930;-89
2022/11/25 14:33:25;;;;;;;;;;;;;;;;;;6230136;23;19920;-89
2022/11/25 14:35:51;;;;;;;;;;;;;;;;;;6234316;23;19915;-89
2022/11/25 14:38:17;;;;;;;;;;;;;;;;;;6235081;23;19920;-89
2022/11/25 14:40:43;;;;;;;;;;;;;;;;;;6231156;23;20092;-88
2022/11/25 14:43:09;;;;;;;;;;;;;;;;;;6233012;23;19994;-89
2022/11/25 14:45:35;;;;;;;;;;;;;;;;;;6230582;23;19923;-90
2022/11/25 14:48:01;;;;;;;;;;;;;;;;;;6229193;23;20352;-89
2022/11/25 14:50:27;;;;;;;;;;;;;;;;;;6220123;23;19920;-89
2022/11/25 14:53:00;;;;;;;;;;;;;;;;;;6250514;22;19923;-89
2022/11/25 14:55:30;;;;;;;;;;;;;;;;;;6216187;22;19949;-89
2022/11/25 14:57:56;;;;;;;;;;;;;;;;;;6223801;23;19920;-94
2022/11/25 15:00:28;;;;;;;;;;;;;;;;;;6249437;22;19927;-92
2022/11/25 15:02:54;;;;;;;;;;;;;;;;;;6222595;23;19926;-91
2022/11/25 15:05:20;;;;;;;;;;;;;;;;;;6222024;23;20195;-89
2022/11/25 15:07:46;;;;;;;;;;;;;;;;;;6223207;23;19919;-89
2022/11/25 15:10:12;;;;;;;;;;;;;;;;;;6224434;23;19924;-91
2022/11/25 15:12:38;;;;;;;;;;;;;;;;;;6218940;23;19920;-89
2022/11/25 15:15:04;;;;;;;;;;;;;;;;;;6222361;23;19950;-91
2022/11/25 15:17:33;;;;;;;;;;;;;;;;;;6224955;23;19920;-90
2022/11/25 15:20:02;;;;;;;;;;;;;;;;;;6226752;23;19924;-91
2022/11/25 15:22:28;;;;;;;;;;;;;;;;;;6220643;23;19959;-90
2022/11/25 15:24:54;;;;;;;;;;;;;;;;;;6224682;23;19926;-91
2022/11/25 15:27:26;;;;;;;;;;;;;;;;;;6225320;23;19919;-91
2022/11/25 15:29:52;;;;;;;;;;;;;;;;;;6225160;23;19928;-90
2022/11/25 15:32:21;;;;;;;;;;;;;;;;;;6224865;23;19920;-89
2022/11/25 15:34:53;;;;;;;;;;;;;;;;;;6224677;23;19938;-90
2022/11/25 16:14:12;;;;;;;;;;;;;;;;;;6129864;23;19920;-88
2022/11/25 16:16:38;;;;;;;;;;;;;;;;;;6138839;23;19920;-88
2022/11/25 16:19:05;;;;;;;;;;;;;;;;;;6142866;23;19931;-88
2022/11/25 16:21:31;;;;;;;;;;;;;;;;;;6196708;23;20034;-90
2022/11/25 16:23:57;;;;;;;;;;;;;;;;;;6166959;23;20224;-88
2022/11/25 16:26:23;;;;;;;;;;;;;;;;;;6140362;23;19920;-88
2022/11/25 16:28:49;;;;;;;;;;;;;;;;;;6164997;23;19916;-88
2022/11/25 16:31:15;;;;;;;;;;;;;;;;;;6143155;23;19927;-89
2022/11/25 16:33:41;;;;;;;;;;;;;;;;;;6141972;23;19927;-89
2022/11/25 16:36:07;;;;;;;;;;;;;;;;;;6142580;23;19998;-89
2022/11/25 16:38:33;;;;;;;;;;;;;;;;;;6164528;23;19927;-89
2022/11/25 16:40:59;;;;;;;;;;;;;;;;;;6144658;23;19920;-89
2022/11/25 16:43:25;;;;;;;;;;;;;;;;;;6168404;23;19919;-88
2022/11/25 16:45:54;;;;;;;;;;;;;;;;;;6147109;23;20375;-89
2022/11/25 16:48:23;;;;;;;;;;;;;;;;;;6143955;23;19995;-88
2022/11/25 16:50:49;;;;;;;;;;;;;;;;;;6144083;23;20294;-88
2022/11/25 16:53:18;;;;;;;;;;;;;;;;;;6145738;23;19921;-88
2022/11/25 16:55:46;;;;;;;;;;;;;;;;;;6134051;23;19924;-89
2022/11/25 17:06:59;;;;;;;;;;;;;;;;;;6210627;22;19923;-88
2022/11/25 17:09:36;;;;;;;;;;;;;;;;;;6191855;23;20237;-88
2022/11/25 17:12:02;;;;;;;;;;;;;;;;;;6145216;23;19916;-88
2022/11/25 17:14:28;;;;;;;;;;;;;;;;;;6138083;23;19920;-88
2022/11/25 17:17:13;;;;;;;;;;;;;;;;;;;;;
2022/11/25 17:19:50;;;;;;;;;;;;;;;;;;6168048;23;20592;-89
2022/11/25 17:22:17;;;;;;;;;;;;;;;;;;6142159;23;19916;-88
2022/11/25 17:24:45;;;;;;;;;;;;;;;;;;6141710;23;20517;-89
2022/11/25 17:27:30;;;;;;;;;;;;;;;;;;;;;
2022/11/25 17:30:06;;;;;;;;;;;;;;;;;;6174596;23;19926;-88
2022/11/25 17:32:37;;;;;;;;;;;;;;;;;;6144156;23;20295;-89
2022/11/25 17:35:03;;;;;;;;;;;;;;;;;;6147523;23;19970;-89
2022/11/25 17:38:00;;;;;;;;;;;;;;;;;;6175112;23;20241;-89